createdAt,value
2023-04-17T00:01:31.672Z,12.90
2023-04-17T00:04:03.556Z,13.80
2023-04-17T00:06:35.289Z,13.43
2023-04-17T00:09:06.987Z,13.37
2023-04-17T00:11:38.598Z,13.87
2023-04-17T00:14:09.895Z,13.60
2023-04-17T00:16:41.309Z,13.60
2023-04-17T00:19:12.869Z,14.60
2023-04-17T00:21:44.388Z,14.73
2023-04-17T00:24:15.622Z,13.93
2023-04-17T00:26:46.898Z,14.87
2023-04-17T00:29:18.153Z,14.50
2023-04-17T00:31:49.513Z,13.87
2023-04-17T00:34:20.896Z,15.33
2023-04-17T00:36:52.236Z,14.27
2023-04-17T00:39:23.488Z,15.83
2023-04-17T00:41:54.816Z,14.77
2023-04-17T00:44:26.432Z,15.17
2023-04-17T00:46:57.858Z,15.03
2023-04-17T00:49:29.461Z,13.93
2023-04-17T00:52:01.405Z,13.70
2023-04-17T00:54:33.067Z,15.30
2023-04-17T00:57:04.427Z,15.27
2023-04-17T00:59:37.274Z,13.10
2023-04-17T01:02:08.717Z,15.03
2023-04-17T01:04:40.382Z,14.87
2023-04-17T01:07:11.707Z,14.30
2023-04-17T01:09:43.078Z,15.30
2023-04-17T01:12:22.336Z,15.17
2023-04-17T01:14:55.404Z,15.27
2023-04-17T01:17:27.757Z,15.23
2023-04-17T01:19:59.156Z,15.30
2023-04-17T01:22:30.665Z,15.97
2023-04-17T01:25:02.246Z,15.60
2023-04-17T01:27:35.106Z,14.53
2023-04-17T01:30:07.087Z,15.47
2023-04-17T01:32:38.416Z,15.23
2023-04-17T01:35:10.595Z,14.97
2023-04-17T01:37:41.968Z,15.87
2023-04-17T01:40:13.575Z,14.97
2023-04-17T01:42:44.983Z,15.97
2023-04-17T01:45:16.415Z,14.87
2023-04-17T01:47:47.799Z,15.03
2023-04-17T01:50:19.234Z,15.17
2023-04-17T01:52:50.567Z,15.27
2023-04-17T01:55:21.818Z,14.63
2023-04-17T01:57:53.242Z,15.33
2023-04-17T02:00:24.636Z,14.50
2023-04-17T02:02:56.000Z,17.47
2023-04-17T02:05:27.447Z,15.23
2023-04-17T02:07:58.792Z,14.27
2023-04-17T02:10:30.578Z,13.80
2023-04-17T02:13:01.872Z,13.40
2023-04-17T02:15:33.167Z,15.93
2023-04-17T02:18:08.039Z,15.53
2023-04-17T02:20:39.430Z,15.07
2023-04-17T02:23:10.975Z,15.17
2023-04-17T02:25:42.222Z,15.37
2023-04-17T02:28:13.569Z,15.63
2023-04-17T02:30:45.754Z,15.40
2023-04-17T02:33:17.438Z,16.23
2023-04-17T02:35:48.981Z,16.17
2023-04-17T02:38:20.227Z,13.90
2023-04-17T02:40:51.506Z,15.10
2023-04-17T02:43:22.804Z,14.17
2023-04-17T02:45:54.097Z,14.47
2023-04-17T02:48:25.442Z,15.00
2023-04-17T02:50:56.794Z,15.03
2023-04-17T02:53:28.044Z,14.80
2023-04-17T02:55:59.335Z,14.87
2023-04-17T02:58:30.950Z,14.40
2023-04-17T03:01:03.231Z,13.53
2023-04-17T03:03:34.938Z,14.20
2023-04-17T03:06:08.897Z,15.23
2023-04-17T03:08:40.162Z,12.53
2023-04-17T03:11:11.500Z,15.07
2023-04-17T03:13:43.387Z,15.07
2023-04-17T03:16:14.937Z,14.33
2023-04-17T03:18:46.252Z,14.57
2023-04-17T03:21:17.589Z,14.53
2023-04-17T03:23:48.856Z,14.57
2023-04-17T03:26:20.492Z,14.57
2023-04-17T03:28:51.782Z,15.03
2023-04-17T03:31:24.481Z,15.17
2023-04-17T03:33:55.899Z,15.50
2023-04-17T03:36:28.142Z,14.27
2023-04-17T03:38:59.466Z,14.53
2023-04-17T03:41:30.734Z,14.53
2023-04-17T03:44:02.082Z,15.53
2023-04-17T03:46:33.434Z,15.80
2023-04-17T03:49:05.043Z,16.43
2023-04-17T03:51:36.350Z,15.37
2023-04-17T03:54:07.630Z,13.57
2023-04-17T03:56:38.911Z,14.80
2023-04-17T03:59:10.338Z,13.30
2023-04-17T04:01:43.762Z,13.33
2023-04-17T04:04:16.179Z,14.63
2023-04-17T04:06:49.290Z,14.40
2023-04-17T04:09:21.212Z,13.97
2023-04-17T04:11:53.348Z,14.67
2023-04-17T04:14:24.614Z,14.10
2023-04-17T04:16:56.077Z,14.20
2023-04-17T04:19:27.424Z,15.10
2023-04-17T04:21:58.776Z,12.93
2023-04-17T04:24:30.392Z,13.37
2023-04-17T04:27:04.424Z,13.83
2023-04-17T04:29:37.554Z,14.63
2023-04-17T04:32:09.640Z,14.53
2023-04-17T04:34:42.001Z,14.43
2023-04-17T04:37:15.262Z,14.67
2023-04-17T04:39:47.840Z,13.70
2023-04-17T04:42:22.290Z,14.17
2023-04-17T04:44:53.791Z,13.73
2023-04-17T04:47:25.714Z,13.70
2023-04-17T04:49:57.049Z,15.07
2023-04-17T04:52:28.344Z,14.90
2023-04-17T04:54:59.712Z,15.80
2023-04-17T04:57:31.174Z,15.80
2023-04-17T05:00:06.205Z,15.60
2023-04-17T05:02:37.676Z,14.27
2023-04-17T05:05:10.855Z,16.00
2023-04-17T05:07:42.179Z,16.27
2023-04-17T05:10:13.665Z,15.30
2023-04-17T05:12:44.931Z,16.37
2023-04-17T05:15:16.176Z,16.30
2023-04-17T05:17:47.834Z,15.63
2023-04-17T05:20:19.348Z,16.93
2023-04-17T05:22:50.634Z,18.43
2023-04-17T05:25:22.515Z,17.67
2023-04-17T05:27:53.868Z,18.20
2023-04-17T05:30:25.251Z,19.60
2023-04-17T05:32:56.611Z,19.10
2023-04-17T05:35:28.273Z,19.07
2023-04-17T05:37:59.535Z,18.80
2023-04-17T05:40:30.851Z,20.00
2023-04-17T05:43:09.200Z,19.17
2023-04-17T05:45:41.703Z,19.40
2023-04-17T05:48:13.048Z,19.37
2023-04-17T05:50:44.440Z,18.30
2023-04-17T05:53:15.891Z,19.77
2023-04-17T05:55:47.230Z,19.37
2023-04-17T05:58:23.552Z,19.30
2023-04-17T06:00:56.745Z,18.97
2023-04-17T06:03:28.219Z,19.37
2023-04-17T06:05:59.786Z,19.47
2023-04-17T06:08:31.242Z,18.57
2023-04-17T06:11:02.544Z,17.83
2023-04-17T06:13:33.823Z,19.07
2023-04-17T06:16:05.565Z,19.57
2023-04-17T06:18:36.864Z,17.83
2023-04-17T06:21:08.376Z,18.17
2023-04-17T06:23:39.638Z,17.53
2023-04-17T06:26:12.171Z,17.70
2023-04-17T06:28:43.516Z,17.57
2023-04-17T06:31:14.927Z,18.73
2023-04-17T06:33:47.658Z,18.40
2023-04-17T06:36:18.912Z,15.80
2023-04-17T06:38:50.484Z,17.83
2023-04-17T06:41:22.355Z,16.63
2023-04-17T06:43:53.634Z,15.40
2023-04-17T06:46:25.028Z,16.83
2023-04-17T06:48:59.356Z,16.10
2023-04-17T06:51:30.700Z,15.73
2023-04-17T06:54:02.152Z,15.73
2023-04-17T06:56:33.461Z,14.30
2023-04-17T06:59:04.769Z,14.63
2023-04-17T07:01:37.980Z,13.73
2023-04-17T07:04:10.754Z,14.27
2023-04-17T07:06:42.203Z,13.93
2023-04-17T07:09:13.567Z,13.20
2023-04-17T07:11:44.920Z,12.73
2023-04-17T07:14:16.463Z,12.50
2023-04-17T07:16:47.926Z,11.13
2023-04-17T07:19:19.638Z,11.57
2023-04-17T07:21:50.904Z,10.90
2023-04-17T07:24:22.417Z,8.83
2023-04-17T07:26:53.787Z,8.87
2023-04-17T07:29:25.084Z,8.87
2023-04-17T07:31:56.545Z,7.70
2023-04-17T07:34:31.034Z,8.20
2023-04-17T07:37:02.303Z,7.70
2023-04-17T07:39:33.566Z,8.40
2023-04-17T07:42:07.226Z,8.10
2023-04-17T07:44:39.073Z,8.27
2023-04-17T07:47:10.491Z,7.73
2023-04-17T07:49:41.935Z,7.87
2023-04-17T07:52:15.142Z,8.47
2023-04-17T07:54:46.571Z,8.20
2023-04-17T07:57:18.438Z,8.37
2023-04-17T07:59:49.711Z,7.47
2023-04-17T08:02:22.157Z,7.77
2023-04-17T08:04:55.291Z,7.27
2023-04-17T08:07:27.000Z,7.27
2023-04-17T08:09:58.286Z,7.13
2023-04-17T08:12:29.650Z,6.97
2023-04-17T08:15:00.958Z,6.93
2023-04-17T08:17:33.768Z,6.23
2023-04-17T08:20:11.094Z,6.67
2023-04-17T08:22:44.421Z,6.27
2023-04-17T08:25:16.102Z,5.90
2023-04-17T08:27:47.543Z,6.57
2023-04-17T08:30:20.135Z,6.03
2023-04-17T08:32:52.211Z,6.30
2023-04-17T08:35:23.785Z,6.10
2023-04-17T08:37:58.632Z,6.20
2023-04-17T08:40:30.059Z,7.43
2023-04-17T08:43:02.030Z,7.40
2023-04-17T08:45:37.262Z,7.40
2023-04-17T08:48:08.708Z,7.82
2023-04-17T08:50:42.199Z,7.37
2023-04-17T08:53:13.463Z,6.90
2023-04-17T08:55:46.405Z,7.93
2023-04-17T08:58:17.822Z,6.97
2023-04-17T09:00:49.297Z,7.77
2023-04-17T09:03:21.569Z,9.03
2023-04-17T09:05:57.107Z,8.37
2023-04-17T09:08:29.127Z,8.40
2023-04-17T09:11:00.465Z,9.30
2023-04-17T09:13:40.105Z,9.60
2023-04-17T09:16:13.280Z,8.93
2023-04-17T09:18:46.021Z,9.23
2023-04-17T09:21:18.723Z,8.40
2023-04-17T09:23:50.174Z,9.93
2023-04-17T09:26:23.123Z,8.33
2023-04-17T09:29:04.936Z,8.10
2023-04-17T09:31:38.894Z,8.77
2023-04-17T09:34:13.867Z,9.00
2023-04-17T09:36:45.389Z,8.47
2023-04-17T09:39:20.377Z,9.77
2023-04-17T09:42:03.592Z,8.90
2023-04-17T09:44:36.753Z,9.63
2023-04-17T09:47:09.659Z,8.67
2023-04-17T09:49:55.744Z,9.20
2023-04-17T09:52:28.594Z,8.75
2023-04-17T09:55:06.874Z,8.50
2023-04-17T09:57:38.448Z,8.45
2023-04-17T10:00:14.608Z,7.80
2023-04-17T10:02:49.238Z,8.32
2023-04-17T10:05:22.443Z,8.73
2023-04-17T10:07:53.765Z,8.80
2023-04-17T10:10:33.670Z,9.00
2023-04-17T10:13:11.154Z,9.25
2023-04-17T10:15:46.111Z,8.65
2023-04-17T10:18:24.994Z,6.97
2023-04-17T10:20:57.050Z,6.07
2023-04-17T10:23:33.934Z,7.30
2023-04-17T10:26:26.983Z,5.80
2023-04-17T10:28:58.276Z,6.50
2023-04-17T10:32:13.965Z,6.22
2023-04-17T10:34:46.296Z,6.07
2023-04-17T10:37:18.842Z,6.20
2023-04-17T10:39:56.489Z,5.95
2023-04-17T10:42:32.619Z,4.85
2023-04-17T10:45:17.496Z,5.13
2023-04-17T10:47:58.288Z,5.55
2023-04-17T10:50:29.718Z,5.53
2023-04-17T10:53:01.285Z,4.90
2023-04-17T10:55:32.678Z,4.93
2023-04-17T10:58:12.984Z,4.93
2023-04-17T11:00:52.021Z,4.20
2023-04-17T11:03:23.892Z,5.03
2023-04-17T11:05:55.667Z,4.47
2023-04-17T11:08:26.952Z,4.72
2023-04-17T11:10:58.272Z,4.50
2023-04-17T11:13:33.720Z,4.53
2023-04-17T11:16:05.326Z,4.80
2023-04-17T11:18:37.766Z,5.05
2023-04-17T11:21:13.507Z,5.72
2023-04-17T11:23:52.205Z,6.10
2023-04-17T11:26:23.501Z,5.43
2023-04-17T11:28:54.780Z,5.28
2023-04-17T11:31:26.495Z,4.53
2023-04-17T11:33:58.397Z,5.07
2023-04-17T11:36:29.688Z,4.70
2023-04-17T11:39:01.344Z,5.10
2023-04-17T11:41:39.405Z,5.90
2023-04-17T11:44:14.853Z,4.90
2023-04-17T11:46:53.846Z,5.32
2023-04-17T11:49:26.408Z,5.97
2023-04-17T11:52:01.318Z,6.47
2023-04-17T11:54:37.484Z,6.10
2023-04-17T11:57:13.636Z,5.60
2023-04-17T11:59:46.036Z,5.83
2023-04-17T12:02:17.819Z,5.63
2023-04-17T12:04:49.498Z,5.67
2023-04-17T12:07:23.858Z,3.10
2023-04-17T12:09:58.927Z,4.60
2023-04-17T12:12:31.007Z,4.20
2023-04-17T12:15:03.342Z,4.70
2023-04-17T12:17:34.660Z,6.20
2023-04-17T12:20:06.490Z,5.77
2023-04-17T12:22:37.725Z,5.97
2023-04-17T12:25:09.124Z,5.50
2023-04-17T12:27:40.661Z,5.00
2023-04-17T12:30:12.741Z,5.43
2023-04-17T12:32:48.533Z,5.60
2023-04-17T12:35:21.337Z,4.50
2023-04-17T12:37:52.657Z,4.83
2023-04-17T12:40:25.034Z,5.17
2023-04-17T12:42:56.419Z,4.17
2023-04-17T12:45:28.121Z,4.97
2023-04-17T12:47:59.462Z,4.70
2023-04-17T12:50:31.145Z,3.80
2023-04-17T12:53:02.411Z,4.03
2023-04-17T12:55:33.938Z,3.80
2023-04-17T12:58:09.968Z,3.70
2023-04-17T13:03:15.995Z,4.43
2023-04-17T13:05:53.016Z,4.03
2023-04-17T13:08:24.301Z,4.00
2023-04-17T13:10:56.287Z,4.43
2023-04-17T13:13:27.593Z,4.10
2023-04-17T13:15:58.889Z,4.00
2023-04-17T13:18:30.582Z,4.30
2023-04-17T13:21:01.958Z,4.47
2023-04-17T13:23:33.265Z,4.47
2023-04-17T13:26:04.716Z,3.90
2023-04-17T13:28:35.978Z,4.57
2023-04-17T13:31:07.394Z,5.07
2023-04-17T13:33:40.216Z,4.37
2023-04-17T13:36:11.870Z,4.30
2023-04-17T13:38:43.149Z,4.13
2023-04-17T13:41:14.446Z,4.97
2023-04-17T13:43:45.702Z,5.20
2023-04-17T13:46:17.110Z,4.40
2023-04-17T13:48:48.392Z,4.50
2023-04-17T13:51:19.661Z,4.47
2023-04-17T13:53:51.082Z,4.43
2023-04-17T13:56:23.431Z,5.03
2023-04-17T13:58:55.421Z,4.83
2023-04-17T14:01:26.710Z,3.77
2023-04-17T14:04:00.651Z,4.30
2023-04-17T14:06:33.475Z,3.53
2023-04-17T14:09:05.766Z,4.40
2023-04-17T14:11:37.032Z,4.87
2023-04-17T14:14:08.348Z,4.77
2023-04-17T14:16:40.853Z,4.50
2023-04-17T14:19:14.774Z,3.53
2023-04-17T14:21:46.474Z,4.03
2023-04-17T14:24:17.940Z,4.10
2023-04-17T14:26:49.230Z,3.53
2023-04-17T14:29:21.148Z,3.93
2023-04-17T14:31:53.020Z,3.83
2023-04-17T14:34:24.538Z,4.33
2023-04-17T14:36:58.042Z,3.60
2023-04-17T14:39:31.489Z,3.60
2023-04-17T14:42:03.077Z,4.30
2023-04-17T14:44:34.350Z,3.83
2023-04-17T14:47:05.943Z,3.50
2023-04-17T14:49:37.396Z,2.90
2023-04-17T14:52:08.665Z,3.27
2023-04-17T14:54:40.113Z,3.63
2023-04-17T14:57:11.776Z,3.93
2023-04-17T14:59:44.362Z,3.33
2023-04-17T15:02:15.739Z,3.30
2023-04-17T15:04:48.781Z,3.83
2023-04-17T15:07:20.658Z,3.27
2023-04-17T15:09:51.934Z,4.10
2023-04-17T15:12:23.247Z,3.77
2023-04-17T15:14:56.290Z,3.10
2023-04-17T15:17:27.661Z,3.50
2023-04-17T15:20:00.667Z,3.10
2023-04-17T15:22:32.463Z,2.80
2023-04-17T15:25:04.055Z,3.80
2023-04-17T15:27:35.304Z,3.87
2023-04-17T15:30:08.832Z,3.40
2023-04-17T15:32:41.469Z,3.60
2023-04-17T15:35:12.924Z,3.73
2023-04-17T15:37:44.202Z,3.20
2023-04-17T15:40:16.330Z,3.40
2023-04-17T15:42:47.619Z,2.80
2023-04-17T15:45:18.967Z,2.77
2023-04-17T15:47:50.421Z,3.37
2023-04-17T15:50:21.755Z,3.53
2023-04-17T15:52:53.057Z,3.50
2023-04-17T15:55:24.324Z,3.67
2023-04-17T15:57:55.891Z,3.70
2023-04-17T16:00:27.274Z,3.60
2023-04-17T16:02:58.718Z,5.37
2023-04-17T16:05:30.371Z,4.47
2023-04-17T16:08:01.807Z,5.00
2023-04-17T16:10:34.667Z,5.17
2023-04-17T16:13:05.942Z,4.57
2023-04-17T16:15:37.227Z,5.40
2023-04-17T16:18:08.793Z,5.47
2023-04-17T16:20:40.176Z,5.40
2023-04-17T16:23:11.687Z,5.37
2023-04-17T16:25:42.959Z,5.90
2023-04-17T16:28:14.232Z,5.20
2023-04-17T16:30:45.595Z,4.97
2023-04-17T16:33:16.843Z,5.07
2023-04-17T16:35:48.096Z,6.10
2023-04-17T16:38:19.395Z,5.00
2023-04-17T16:40:53.389Z,5.43
2023-04-17T16:43:26.533Z,6.77
2023-04-17T16:45:58.519Z,6.10
2023-04-17T16:48:31.033Z,5.30
2023-04-17T16:51:04.804Z,6.57
2023-04-17T16:53:36.174Z,5.70
2023-04-17T16:56:07.804Z,3.90
2023-04-17T16:58:39.081Z,5.60
2023-04-17T17:01:10.609Z,6.07
2023-04-17T17:03:43.137Z,5.10
2023-04-17T17:06:14.749Z,5.93
2023-04-17T17:08:46.793Z,5.70
2023-04-17T17:11:19.424Z,5.87
2023-04-17T17:13:53.005Z,5.50
2023-04-17T17:16:24.443Z,6.23
2023-04-17T17:18:56.246Z,6.30
2023-04-17T17:21:28.565Z,5.50
2023-04-17T17:24:00.487Z,5.37
2023-04-17T17:26:31.858Z,4.87
2023-04-17T17:29:03.338Z,5.30
2023-04-17T17:31:34.682Z,5.70
2023-04-17T17:34:22.660Z,4.60
2023-04-17T17:36:58.299Z,5.00
2023-04-17T17:39:29.555Z,5.23
2023-04-17T17:42:02.883Z,4.50
2023-04-17T17:44:35.111Z,4.57
2023-04-17T17:47:07.867Z,5.27
2023-04-17T17:49:39.500Z,4.73
2023-04-17T17:52:10.974Z,5.50
2023-04-17T17:54:42.670Z,4.90
2023-04-17T17:57:13.958Z,4.27
2023-04-17T17:59:45.343Z,4.97
2023-04-17T18:02:16.790Z,4.70
2023-04-17T18:04:48.212Z,4.57
2023-04-17T18:07:19.693Z,4.57
2023-04-17T18:09:51.106Z,4.17
2023-04-17T18:12:22.427Z,4.70
2023-04-17T18:14:53.923Z,4.27
2023-04-17T18:17:25.230Z,4.00
2023-04-17T18:19:56.523Z,4.07
2023-04-17T18:22:27.831Z,5.03
2023-04-17T18:24:59.105Z,4.63
2023-04-17T18:27:30.914Z,5.07
2023-04-17T18:30:06.774Z,4.37
2023-04-17T18:32:38.050Z,4.50
2023-04-17T18:35:09.595Z,4.17
2023-04-17T18:37:43.218Z,3.20
2023-04-17T18:40:14.606Z,4.17
2023-04-17T18:42:45.940Z,3.90
2023-04-17T18:45:17.443Z,3.80
2023-04-17T18:47:48.764Z,4.40
2023-04-17T18:50:20.304Z,3.80
2023-04-17T18:52:51.590Z,5.10
2023-04-17T18:55:22.872Z,4.57
2023-04-17T18:57:54.182Z,4.43
2023-04-17T19:00:25.642Z,4.17
2023-04-17T19:02:57.334Z,4.57
2023-04-17T19:05:28.741Z,4.30
2023-04-17T19:08:00.233Z,3.70
2023-04-17T19:10:31.539Z,4.33
2023-04-17T19:13:05.230Z,4.10
2023-04-17T19:15:36.540Z,4.57
2023-04-17T19:18:08.969Z,4.30
2023-04-17T19:20:42.323Z,4.23
2023-04-17T19:23:14.031Z,4.30
2023-04-17T19:25:50.561Z,3.93
2023-04-17T19:28:25.293Z,4.60
2023-04-17T19:30:57.776Z,3.83
2023-04-17T19:33:29.267Z,4.50
2023-04-17T19:36:03.063Z,4.00
2023-04-17T19:38:34.397Z,3.70
2023-04-17T19:41:11.885Z,5.03
2023-04-17T19:43:51.075Z,4.20
2023-04-17T19:46:24.366Z,4.23
2023-04-17T19:48:55.952Z,4.03
2023-04-17T19:51:32.185Z,4.10
2023-04-17T19:56:34.891Z,4.73
2023-04-17T19:59:06.283Z,4.83
2023-04-17T20:01:37.937Z,4.70
2023-04-17T20:04:09.300Z,5.23
2023-04-17T20:06:40.872Z,4.13
2023-04-17T20:09:14.550Z,4.83
2023-04-17T20:11:46.302Z,5.00
2023-04-17T20:14:19.482Z,5.27
2023-04-17T20:16:51.223Z,5.10
2023-04-17T20:19:23.162Z,5.63
2023-04-17T20:21:54.439Z,5.33
2023-04-17T20:24:25.803Z,5.13
2023-04-17T20:26:58.046Z,5.83
2023-04-17T20:29:30.997Z,5.80
2023-04-17T20:32:03.883Z,6.00
2023-04-17T20:34:35.521Z,5.60
2023-04-17T20:37:06.842Z,6.37
2023-04-17T20:39:39.221Z,5.77
2023-04-17T20:42:10.695Z,6.33
2023-04-17T20:44:41.944Z,6.50
2023-04-17T20:47:13.207Z,5.73
2023-04-17T20:49:44.480Z,5.67
2023-04-17T20:52:15.713Z,7.03
2023-04-17T20:54:47.080Z,6.07
2023-04-17T20:57:18.344Z,7.20
2023-04-17T20:59:49.602Z,7.23
2023-04-17T21:02:21.908Z,5.97
2023-04-17T21:04:53.303Z,6.97
2023-04-17T21:07:24.600Z,6.70
2023-04-17T21:09:55.960Z,6.13
2023-04-17T21:12:27.222Z,6.03
2023-04-17T21:14:58.504Z,7.47
2023-04-17T21:17:29.808Z,6.13
2023-04-17T21:20:01.151Z,5.47
2023-04-17T21:22:32.562Z,5.77
2023-04-17T21:25:04.300Z,5.70
2023-04-17T21:27:35.656Z,6.33
2023-04-17T21:30:08.056Z,5.47
2023-04-17T21:32:40.266Z,5.73
2023-04-17T21:35:11.592Z,5.43
2023-04-17T21:37:42.915Z,5.40
2023-04-17T21:40:14.324Z,5.50
2023-04-17T21:42:45.726Z,5.77
2023-04-17T21:45:17.044Z,5.43
2023-04-17T21:47:48.499Z,6.03
2023-04-17T21:50:19.918Z,6.93
2023-04-17T21:52:51.187Z,7.00
2023-04-17T21:55:22.475Z,6.97
2023-04-17T21:57:53.736Z,6.67
2023-04-17T22:00:25.350Z,7.03
2023-04-17T22:02:56.761Z,7.03
2023-04-17T22:05:32.449Z,7.10
2023-04-17T22:08:03.723Z,7.63
2023-04-17T22:10:35.491Z,6.10
2023-04-17T22:13:06.868Z,5.83
2023-04-17T22:15:38.379Z,6.20
2023-04-17T22:18:09.691Z,5.40
2023-04-17T22:20:41.048Z,5.53
2023-04-17T22:23:12.317Z,5.40
2023-04-17T22:25:43.646Z,6.03
2023-04-17T22:28:14.904Z,5.03
2023-04-17T22:30:49.725Z,4.77
2023-04-17T22:33:21.071Z,4.30
2023-04-17T22:35:52.436Z,3.97
2023-04-17T22:38:23.714Z,4.70
2023-04-17T22:40:55.186Z,3.97
2023-04-17T22:43:26.461Z,3.90
2023-04-17T22:45:57.783Z,3.60
2023-04-17T22:48:29.075Z,3.43
2023-04-17T22:51:01.005Z,3.43
2023-04-17T22:53:33.379Z,3.70
2023-04-17T22:56:05.824Z,3.20
2023-04-17T22:58:37.092Z,3.10
2023-04-17T23:01:08.476Z,2.50
2023-04-17T23:03:39.863Z,2.40
2023-04-17T23:06:11.477Z,3.10
2023-04-17T23:08:42.770Z,2.90
2023-04-17T23:11:14.046Z,3.00
2023-04-17T23:13:45.419Z,2.90
2023-04-17T23:16:17.864Z,3.10
2023-04-17T23:18:49.258Z,3.00
2023-04-17T23:21:20.797Z,3.23
2023-04-17T23:23:52.238Z,3.20
2023-04-17T23:26:23.651Z,2.80
2023-04-17T23:28:54.986Z,3.57
2023-04-17T23:31:26.290Z,3.20
2023-04-17T23:33:57.620Z,3.63
2023-04-17T23:36:28.886Z,4.77
2023-04-17T23:39:00.285Z,5.97
2023-04-17T23:41:33.543Z,5.93
2023-04-17T23:44:05.006Z,7.37
2023-04-17T23:46:36.823Z,6.60
2023-04-17T23:49:08.576Z,7.33
2023-04-17T23:51:39.868Z,7.33
2023-04-17T23:54:11.547Z,7.50
2023-04-17T23:56:45.863Z,7.77
2023-04-17T23:59:17.221Z,8.17
